This demonstration page uses our WeatherBlox Daily Observations layout. Learn more.

Left ArrowRight Arrow

34.74481, -87.66753

Hourly Observations for June 24, 2020

Temp ( °F °C ) Dew Point ( °F °C ) Humidity (%) Winds ( mph kmh ) Pressure ( in mb ) Visibility ( mi km ) Precip ( " mm )
12:14 am 00:14 Partly Cloudy 71 21.7 68 20 90 90 W 8 13 29.94 1014 10 16 0.00 0.00
12:22 am 00:22 Mostly Cloudy 71 21.7 68 20 90 90 WSW 7 11 29.94 1014 10 16 0.00 0.00
12:53 am 00:53 Cloudy N/A N/A N/A W 8 13 N/A 10 16 0.00 0.00
1:53 am 01:53 Cloudy N/A N/A N/A WSW 8 13 N/A 10 16 0.00 0.00
2:28 am 02:28 Cloudy N/A N/A N/A WSW 5 7 N/A 10 16 0.00 0.00
2:53 am 02:53 Mostly Cloudy 70 21.1 67 19.4 90 90 WNW 6 9 29.92 1013 10 16 0.00 0.00
3:53 am 03:53 Clear 70 21.1 67 19.4 90 90 WSW 3 6 29.91 1013 10 16 0.00 0.00
4:32 am 04:32 Partly Cloudy N/A N/A N/A Calm N/A 10 16 0.00 0.00
4:42 am 04:42 Mostly Cloudy N/A N/A N/A Calm N/A 10 16 0.00 0.00
4:53 am 04:53 Partly Cloudy N/A N/A N/A Calm N/A 10 16 0.00 0.00
5:53 am 05:53 Cloudy N/A N/A N/A Calm N/A 8 13 0.00 0.00
6:53 am 06:53 Cloudy N/A N/A N/A Calm N/A 10 16 0.00 0.00
7:22 am 07:22 Cloudy 71 21.7 68 20 90 90 SSW 6 9 29.94 1014 10 16 0.00 0.00
7:34 am 07:34 Cloudy 71 21.7 68 20 90 90 S 8 13 29.94 1014 10 16 0.00 0.00
7:51 am 07:51 Cloudy N/A N/A N/A S 7 11 N/A 10 16 0.00 0.00
7:53 am 07:53 Cloudy N/A N/A N/A S 7 11 N/A 10 16 0.00 0.00
8:09 am 08:09 Cloudy with Heavy Rain N/A N/A N/A SW 5 7 N/A 1 2 0.08 2.03
8:13 am 08:13 Cloudy with Heavy Rain N/A N/A N/A S 5 7 N/A 1 1 0.11 2.79
8:20 am 08:20 Cloudy with Light Rain N/A N/A N/A SSW 5 7 N/A 2 3 0.12 3.05
8:27 am 08:27 Cloudy with Light Rain N/A N/A N/A SSW 5 7 N/A 8 13 0.12 3.05
8:40 am 08:40 Cloudy with Light Rain N/A N/A N/A SSW 3 6 N/A 2 3 0.16 4.06
8:48 am 08:48 Cloudy with Light Rain N/A N/A N/A SE 5 7 N/A 5 8 0.16 4.06
8:53 am 08:53 Cloudy N/A N/A N/A SSE 5 7 N/A 7 11 0.16 4.06
9:06 am 09:06 Cloudy N/A N/A N/A SSE 3 6 N/A 9 14 0.00 0.00
9:19 am 09:19 Cloudy N/A N/A N/A Calm N/A 9 14 0.00 0.00
9:43 am 09:43 Cloudy N/A N/A N/A Calm N/A 10 16 0.00 0.00
9:53 am 09:53 Cloudy N/A N/A N/A Calm N/A 10 16 0.00 0.00
10:35 am 10:35 Cloudy with Rain N/A N/A N/A SW 3 6 N/A 2 3 0.04 1.02
10:41 am 10:41 Cloudy with Heavy Rain N/A N/A N/A Calm N/A 1 1 0.08 2.03
10:45 am 10:45 Cloudy with Strong Thunderstorms N/A N/A N/A Calm N/A 1 2 0.10 2.54
10:51 am 10:51 Cloudy with Thunderstorms N/A N/A N/A NNE 3 6 N/A 2 3 0.11 2.79
10:53 am 10:53 Mostly Cloudy with Thunderstorms N/A N/A N/A Calm N/A 4 6 0.11 2.79
11:04 am 11:04 Cloudy with Rain N/A N/A N/A Calm N/A 3 5 0.01 0.25
11:53 am 11:53 Cloudy N/A N/A N/A SSE 3 6 N/A 10 16 0.08 2.03
12:27 pm 12:27 Cloudy with Rain N/A N/A N/A SSE 5 7 N/A 4 6 0.04 1.02
12:53 pm 12:53 Cloudy with Light Rain N/A N/A N/A SE 3 6 N/A 9 14 0.06 1.52
1:03 pm 13:03 Cloudy with Light Rain N/A N/A N/A VRB 5 7 N/A 7 11 0.01 0.25
1:53 pm 13:53 Cloudy N/A N/A N/A SE 5 7 N/A 10 16 0.02 0.51
2:04 pm 14:04 Cloudy N/A N/A N/A SE 5 7 N/A 10 16 0.00 0.00
2:53 pm 14:53 Partly Cloudy N/A N/A N/A SE 5 7 N/A 10 16 0.00 0.00
3:22 pm 15:22 Mostly Cloudy N/A N/A N/A ESE 3 6 N/A 10 16 0.00 0.00
3:38 pm 15:38 Partly Cloudy N/A N/A N/A Calm N/A 10 16 0.00 0.00
3:53 pm 15:53 Mostly Sunny N/A N/A N/A Calm N/A 10 16 0.00 0.00
4:53 pm 16:53 Mostly Sunny N/A N/A N/A S 7 11 N/A 10 16 0.00 0.00
5:36 pm 17:36 Mostly Cloudy N/A N/A N/A ESE 3 6 N/A 10 16 0.00 0.00
5:53 pm 17:53 Mostly Cloudy N/A N/A N/A SSE 5 7 N/A 10 16 0.00 0.00
6:29 pm 18:29 Partly Cloudy N/A N/A N/A S 5 7 N/A 10 16 0.00 0.00
6:53 pm 18:53 Sunny N/A N/A N/A S 6 9 N/A 10 16 0.00 0.00
7:53 pm 19:53 Sunny N/A N/A N/A S 5 7 N/A 10 16 0.00 0.00
8:53 pm 20:53 Clear N/A N/A N/A SSW 5 7 N/A 10 16 0.00 0.00
9:53 pm 21:53 Partly Cloudy N/A N/A N/A SSW 3 6 N/A 10 16 0.00 0.00
10:43 pm 22:43 Mostly Cloudy N/A N/A N/A SW 3 6 N/A 10 16 0.00 0.00
10:53 pm 22:53 Mostly Cloudy N/A N/A N/A Calm N/A 10 16 0.00 0.00
11:32 pm 23:32 Mostly Cloudy N/A N/A N/A SSW 3 6 N/A 10 16 0.00 0.00
11:53 pm 23:53 Mostly Cloudy N/A N/A N/A Calm N/A 10 16 0.00 0.00

Powered by AerisWeather